sensor_id;sensor_type;location;lat;lon;timestamp;P1;durP1;ratioP1;P2;durP2;ratioP2
3653;SDS011;70277;54.302;10.064;2023-08-17T00:01:10;6.07;;;1.58;;
3653;SDS011;70277;54.302;10.064;2023-08-17T00:03:37;3.15;;;1.48;;
3653;SDS011;70277;54.302;10.064;2023-08-17T00:06:04;5.93;;;1.30;;
3653;SDS011;70277;54.302;10.064;2023-08-17T00:08:30;5.35;;;1.60;;
3653;SDS011;70277;54.302;10.064;2023-08-17T00:10:57;9.68;;;1.77;;
3653;SDS011;70277;54.302;10.064;2023-08-17T00:13:23;5.05;;;1.60;;
3653;SDS011;70277;54.302;10.064;2023-08-17T00:15:50;7.05;;;1.85;;
3653;SDS011;70277;54.302;10.064;2023-08-17T00:18:16;3.70;;;1.50;;
3653;SDS011;70277;54.302;10.064;2023-08-17T00:20:43;6.65;;;2.05;;
3653;SDS011;70277;54.302;10.064;2023-08-17T00:23:10;3.63;;;1.70;;
3653;SDS011;70277;54.302;10.064;2023-08-17T00:25:37;5.72;;;1.73;;
3653;SDS011;70277;54.302;10.064;2023-08-17T00:28:03;8.20;;;1.88;;
3653;SDS011;70277;54.302;10.064;2023-08-17T00:30:30;8.18;;;1.88;;
3653;SDS011;70277;54.302;10.064;2023-08-17T00:32:56;10.98;;;2.20;;
3653;SDS011;70277;54.302;10.064;2023-08-17T00:35:23;1.48;;;1.30;;
3653;SDS011;70277;54.302;10.064;2023-08-17T00:37:49;4.70;;;1.60;;
3653;SDS011;70277;54.302;10.064;2023-08-17T00:40:16;3.55;;;1.63;;
3653;SDS011;70277;54.302;10.064;2023-08-17T00:42:42;5.60;;;1.70;;
3653;SDS011;70277;54.302;10.064;2023-08-17T00:45:09;7.28;;;1.65;;
3653;SDS011;70277;54.302;10.064;2023-08-17T00:47:36;5.57;;;2.15;;
3653;SDS011;70277;54.302;10.064;2023-08-17T00:50:02;3.67;;;1.40;;
3653;SDS011;70277;54.302;10.064;2023-08-17T00:52:30;4.72;;;1.70;;
3653;SDS011;70277;54.302;10.064;2023-08-17T00:54:58;3.28;;;1.70;;
3653;SDS011;70277;54.302;10.064;2023-08-17T00:57:27;4.95;;;1.58;;
3653;SDS011;70277;54.302;10.064;2023-08-17T00:59:54;4.40;;;1.58;;
3653;SDS011;70277;54.302;10.064;2023-08-17T01:02:31;2.25;;;1.05;;
3653;SDS011;70277;54.302;10.064;2023-08-17T01:04:57;4.40;;;1.73;;
3653;SDS011;70277;54.302;10.064;2023-08-17T01:07:24;3.20;;;1.60;;
3653;SDS011;70277;54.302;10.064;2023-08-17T01:09:51;5.43;;;1.88;;
3653;SDS011;70277;54.302;10.064;2023-08-17T01:13:04;3.90;;;1.55;;
3653;SDS011;70277;54.302;10.064;2023-08-17T01:15:30;2.70;;;1.75;;
3653;SDS011;70277;54.302;10.064;2023-08-17T01:18:11;4.00;;;1.60;;
3653;SDS011;70277;54.302;10.064;2023-08-17T01:20:49;5.75;;;1.70;;
3653;SDS011;70277;54.302;10.064;2023-08-17T01:23:18;7.25;;;2.42;;
3653;SDS011;70277;54.302;10.064;2023-08-17T01:25:44;3.90;;;1.58;;
3653;SDS011;70277;54.302;10.064;2023-08-17T01:28:11;3.67;;;1.58;;
3653;SDS011;70277;54.302;10.064;2023-08-17T01:30:44;4.82;;;1.88;;
3653;SDS011;70277;54.302;10.064;2023-08-17T01:33:19;4.15;;;1.60;;
3653;SDS011;70277;54.302;10.064;2023-08-17T01:35:54;11.05;;;1.70;;
3653;SDS011;70277;54.302;10.064;2023-08-17T01:38:25;3.25;;;1.75;;
3653;SDS011;70277;54.302;10.064;2023-08-17T01:40:55;1.55;;;1.48;;
3653;SDS011;70277;54.302;10.064;2023-08-17T01:43:23;5.85;;;1.77;;
3653;SDS011;70277;54.302;10.064;2023-08-17T01:45:50;2.67;;;1.83;;
3653;SDS011;70277;54.302;10.064;2023-08-17T01:48:16;7.05;;;2.35;;
3653;SDS011;70277;54.302;10.064;2023-08-17T01:50:43;6.80;;;2.10;;
3653;SDS011;70277;54.302;10.064;2023-08-17T01:53:09;4.57;;;2.13;;
3653;SDS011;70277;54.302;10.064;2023-08-17T01:55:36;6.47;;;1.80;;
3653;SDS011;70277;54.302;10.064;2023-08-17T01:58:02;4.75;;;1.83;;
3653;SDS011;70277;54.302;10.064;2023-08-17T02:00:29;5.65;;;2.60;;
3653;SDS011;70277;54.302;10.064;2023-08-17T02:02:56;5.05;;;2.00;;
3653;SDS011;70277;54.302;10.064;2023-08-17T02:05:22;9.35;;;2.60;;
3653;SDS011;70277;54.302;10.064;2023-08-17T02:07:48;8.82;;;2.50;;
3653;SDS011;70277;54.302;10.064;2023-08-17T02:10:15;5.55;;;1.90;;
3653;SDS011;70277;54.302;10.064;2023-08-17T02:12:41;7.15;;;2.50;;
3653;SDS011;70277;54.302;10.064;2023-08-17T02:15:08;4.10;;;1.98;;
3653;SDS011;70277;54.302;10.064;2023-08-17T02:17:35;4.95;;;1.85;;
3653;SDS011;70277;54.302;10.064;2023-08-17T02:20:01;3.38;;;2.10;;
3653;SDS011;70277;54.302;10.064;2023-08-17T02:22:30;10.05;;;2.35;;
3653;SDS011;70277;54.302;10.064;2023-08-17T02:24:56;8.45;;;2.20;;
3653;SDS011;70277;54.302;10.064;2023-08-17T02:27:23;4.32;;;2.25;;
3653;SDS011;70277;54.302;10.064;2023-08-17T02:29:49;5.95;;;2.08;;
3653;SDS011;70277;54.302;10.064;2023-08-17T02:32:16;4.05;;;2.50;;
3653;SDS011;70277;54.302;10.064;2023-08-17T02:34:42;7.10;;;2.40;;
3653;SDS011;70277;54.302;10.064;2023-08-17T02:37:09;2.88;;;2.10;;
3653;SDS011;70277;54.302;10.064;2023-08-17T02:39:36;5.72;;;2.30;;
3653;SDS011;70277;54.302;10.064;2023-08-17T02:42:02;5.57;;;2.63;;
3653;SDS011;70277;54.302;10.064;2023-08-17T02:44:29;5.82;;;2.10;;
3653;SDS011;70277;54.302;10.064;2023-08-17T02:46:55;6.43;;;2.50;;
3653;SDS011;70277;54.302;10.064;2023-08-17T02:49:22;4.95;;;2.00;;
3653;SDS011;70277;54.302;10.064;2023-08-17T02:51:48;2.85;;;1.92;;
3653;SDS011;70277;54.302;10.064;2023-08-17T02:54:15;6.05;;;2.03;;
3653;SDS011;70277;54.302;10.064;2023-08-17T02:56:41;5.75;;;2.33;;
3653;SDS011;70277;54.302;10.064;2023-08-17T02:59:07;6.95;;;2.00;;
3653;SDS011;70277;54.302;10.064;2023-08-17T03:01:34;9.38;;;2.25;;
3653;SDS011;70277;54.302;10.064;2023-08-17T03:04:01;4.30;;;1.80;;
3653;SDS011;70277;54.302;10.064;2023-08-17T03:06:28;4.40;;;1.83;;
3653;SDS011;70277;54.302;10.064;2023-08-17T03:08:54;6.57;;;1.80;;
3653;SDS011;70277;54.302;10.064;2023-08-17T03:11:21;6.53;;;1.80;;
3653;SDS011;70277;54.302;10.064;2023-08-17T03:13:47;4.38;;;1.90;;
3653;SDS011;70277;54.302;10.064;2023-08-17T03:16:14;4.20;;;1.52;;
3653;SDS011;70277;54.302;10.064;2023-08-17T03:18:41;3.05;;;1.50;;
3653;SDS011;70277;54.302;10.064;2023-08-17T03:21:11;9.13;;;1.55;;
3653;SDS011;70277;54.302;10.064;2023-08-17T03:23:37;2.53;;;1.40;;
3653;SDS011;70277;54.302;10.064;2023-08-17T03:26:04;4.72;;;1.40;;
3653;SDS011;70277;54.302;10.064;2023-08-17T03:28:30;6.10;;;1.73;;
3653;SDS011;70277;54.302;10.064;2023-08-17T03:30:57;6.15;;;1.60;;
3653;SDS011;70277;54.302;10.064;2023-08-17T03:33:23;2.65;;;1.40;;
3653;SDS011;70277;54.302;10.064;2023-08-17T03:35:50;5.43;;;1.60;;
3653;SDS011;70277;54.302;10.064;2023-08-17T03:38:17;2.08;;;1.20;;
3653;SDS011;70277;54.302;10.064;2023-08-17T03:40:43;3.45;;;1.35;;
3653;SDS011;70277;54.302;10.064;2023-08-17T03:43:09;4.38;;;1.23;;
3653;SDS011;70277;54.302;10.064;2023-08-17T03:45:36;2.70;;;1.30;;
3653;SDS011;70277;54.302;10.064;2023-08-17T03:48:03;4.03;;;1.25;;
3653;SDS011;70277;54.302;10.064;2023-08-17T03:50:30;3.30;;;1.60;;
3653;SDS011;70277;54.302;10.064;2023-08-17T03:52:56;5.80;;;1.90;;
3653;SDS011;70277;54.302;10.064;2023-08-17T03:55:23;7.00;;;1.45;;
3653;SDS011;70277;54.302;10.064;2023-08-17T03:57:49;4.05;;;1.45;;
3653;SDS011;70277;54.302;10.064;2023-08-17T04:00:16;11.00;;;1.70;;
3653;SDS011;70277;54.302;10.064;2023-08-17T04:02:42;5.32;;;1.80;;
3653;SDS011;70277;54.302;10.064;2023-08-17T04:05:09;2.72;;;1.48;;
3653;SDS011;70277;54.302;10.064;2023-08-17T04:07:36;2.35;;;1.20;;
3653;SDS011;70277;54.302;10.064;2023-08-17T04:10:04;2.60;;;1.30;;
3653;SDS011;70277;54.302;10.064;2023-08-17T04:12:31;3.58;;;1.20;;
3653;SDS011;70277;54.302;10.064;2023-08-17T04:14:58;5.43;;;1.13;;
3653;SDS011;70277;54.302;10.064;2023-08-17T04:17:25;2.83;;;1.27;;
3653;SDS011;70277;54.302;10.064;2023-08-17T04:19:52;3.42;;;1.20;;
3653;SDS011;70277;54.302;10.064;2023-08-17T04:22:19;3.22;;;1.00;;
3653;SDS011;70277;54.302;10.064;2023-08-17T04:24:45;6.63;;;1.30;;
3653;SDS011;70277;54.302;10.064;2023-08-17T04:27:12;2.83;;;1.10;;
3653;SDS011;70277;54.302;10.064;2023-08-17T04:29:40;6.35;;;1.00;;
3653;SDS011;70277;54.302;10.064;2023-08-17T04:32:06;2.85;;;1.20;;
3653;SDS011;70277;54.302;10.064;2023-08-17T04:34:33;3.63;;;1.20;;
3653;SDS011;70277;54.302;10.064;2023-08-17T04:36:59;4.72;;;1.48;;
3653;SDS011;70277;54.302;10.064;2023-08-17T04:39:26;5.97;;;1.08;;
3653;SDS011;70277;54.302;10.064;2023-08-17T04:41:52;3.63;;;1.23;;
3653;SDS011;70277;54.302;10.064;2023-08-17T04:44:19;3.25;;;1.30;;
3653;SDS011;70277;54.302;10.064;2023-08-17T04:46:45;4.50;;;1.15;;
3653;SDS011;70277;54.302;10.064;2023-08-17T04:49:12;3.63;;;1.20;;
3653;SDS011;70277;54.302;10.064;2023-08-17T04:51:38;5.85;;;1.20;;
3653;SDS011;70277;54.302;10.064;2023-08-17T04:54:04;3.83;;;1.00;;
3653;SDS011;70277;54.302;10.064;2023-08-17T04:56:31;6.18;;;1.52;;
3653;SDS011;70277;54.302;10.064;2023-08-17T04:58:57;4.43;;;1.17;;
3653;SDS011;70277;54.302;10.064;2023-08-17T05:01:24;3.38;;;1.30;;
3653;SDS011;70277;54.302;10.064;2023-08-17T05:03:50;2.67;;;1.17;;
3653;SDS011;70277;54.302;10.064;2023-08-17T05:06:18;2.80;;;1.15;;
3653;SDS011;70277;54.302;10.064;2023-08-17T05:08:44;2.03;;;1.25;;
3653;SDS011;70277;54.302;10.064;2023-08-17T05:11:11;3.75;;;1.58;;
3653;SDS011;70277;54.302;10.064;2023-08-17T05:13:38;7.10;;;1.40;;
3653;SDS011;70277;54.302;10.064;2023-08-17T05:16:04;6.72;;;1.00;;
3653;SDS011;70277;54.302;10.064;2023-08-17T05:18:31;1.67;;;0.85;;
3653;SDS011;70277;54.302;10.064;2023-08-17T05:20:58;4.85;;;1.20;;
3653;SDS011;70277;54.302;10.064;2023-08-17T05:23:24;2.45;;;1.00;;
3653;SDS011;70277;54.302;10.064;2023-08-17T05:25:50;2.78;;;1.10;;
3653;SDS011;70277;54.302;10.064;2023-08-17T05:28:17;8.45;;;1.52;;
3653;SDS011;70277;54.302;10.064;2023-08-17T05:30:43;2.35;;;1.10;;
3653;SDS011;70277;54.302;10.064;2023-08-17T05:33:10;1.48;;;1.17;;
3653;SDS011;70277;54.302;10.064;2023-08-17T05:35:36;2.53;;;1.00;;
3653;SDS011;70277;54.302;10.064;2023-08-17T05:38:03;2.08;;;1.02;;
3653;SDS011;70277;54.302;10.064;2023-08-17T05:40:30;7.25;;;1.20;;
3653;SDS011;70277;54.302;10.064;2023-08-17T05:42:57;1.88;;;1.10;;
3653;SDS011;70277;54.302;10.064;2023-08-17T05:45:23;4.32;;;1.20;;
3653;SDS011;70277;54.302;10.064;2023-08-17T05:47:50;1.77;;;1.10;;
3653;SDS011;70277;54.302;10.064;2023-08-17T05:50:18;3.20;;;1.20;;
3653;SDS011;70277;54.302;10.064;2023-08-17T05:52:44;2.20;;;1.00;;
3653;SDS011;70277;54.302;10.064;2023-08-17T05:55:11;2.80;;;1.00;;
3653;SDS011;70277;54.302;10.064;2023-08-17T05:57:37;4.70;;;1.20;;
3653;SDS011;70277;54.302;10.064;2023-08-17T06:00:04;1.80;;;1.10;;
3653;SDS011;70277;54.302;10.064;2023-08-17T06:02:31;3.88;;;1.00;;
3653;SDS011;70277;54.302;10.064;2023-08-17T06:04:57;1.88;;;1.60;;
3653;SDS011;70277;54.302;10.064;2023-08-17T06:07:24;5.13;;;1.20;;
3653;SDS011;70277;54.302;10.064;2023-08-17T06:09:51;2.22;;;1.02;;
3653;SDS011;70277;54.302;10.064;2023-08-17T06:12:17;1.92;;;0.98;;
3653;SDS011;70277;54.302;10.064;2023-08-17T06:14:45;2.22;;;1.40;;
3653;SDS011;70277;54.302;10.064;2023-08-17T06:17:11;3.08;;;1.10;;
3653;SDS011;70277;54.302;10.064;2023-08-17T06:19:38;2.08;;;1.00;;
3653;SDS011;70277;54.302;10.064;2023-08-17T06:22:06;9.90;;;1.63;;
3653;SDS011;70277;54.302;10.064;2023-08-17T06:24:32;4.53;;;1.20;;
3653;SDS011;70277;54.302;10.064;2023-08-17T06:26:59;1.92;;;1.17;;
3653;SDS011;70277;54.302;10.064;2023-08-17T06:29:25;4.20;;;1.20;;
3653;SDS011;70277;54.302;10.064;2023-08-17T06:31:52;3.38;;;1.20;;
3653;SDS011;70277;54.302;10.064;2023-08-17T06:34:18;2.60;;;1.00;;
3653;SDS011;70277;54.302;10.064;2023-08-17T06:36:55;5.13;;;1.23;;
3653;SDS011;70277;54.302;10.064;2023-08-17T06:39:23;1.60;;;1.20;;
3653;SDS011;70277;54.302;10.064;2023-08-17T06:41:49;1.45;;;1.10;;
3653;SDS011;70277;54.302;10.064;2023-08-17T06:44:16;3.60;;;1.30;;
3653;SDS011;70277;54.302;10.064;2023-08-17T06:46:42;6.10;;;1.83;;
3653;SDS011;70277;54.302;10.064;2023-08-17T06:49:09;5.47;;;1.45;;
3653;SDS011;70277;54.302;10.064;2023-08-17T06:51:37;5.63;;;1.30;;
3653;SDS011;70277;54.302;10.064;2023-08-17T06:54:03;4.78;;;1.52;;
3653;SDS011;70277;54.302;10.064;2023-08-17T06:56:31;3.03;;;1.63;;
3653;SDS011;70277;54.302;10.064;2023-08-17T06:58:57;8.98;;;1.48;;
3653;SDS011;70277;54.302;10.064;2023-08-17T07:01:24;5.10;;;1.25;;
3653;SDS011;70277;54.302;10.064;2023-08-17T07:03:50;1.65;;;1.20;;
3653;SDS011;70277;54.302;10.064;2023-08-17T07:06:16;4.25;;;1.40;;
3653;SDS011;70277;54.302;10.064;2023-08-17T07:08:44;3.88;;;1.60;;
3653;SDS011;70277;54.302;10.064;2023-08-17T07:11:10;3.95;;;1.58;;
3653;SDS011;70277;54.302;10.064;2023-08-17T07:13:37;3.78;;;1.30;;
3653;SDS011;70277;54.302;10.064;2023-08-17T07:16:03;6.82;;;1.15;;
3653;SDS011;70277;54.302;10.064;2023-08-17T07:18:30;3.72;;;1.05;;
3653;SDS011;70277;54.302;10.064;2023-08-17T07:20:56;5.97;;;1.20;;
3653;SDS011;70277;54.302;10.064;2023-08-17T07:23:24;5.05;;;1.10;;
3653;SDS011;70277;54.302;10.064;2023-08-17T07:25:51;5.07;;;1.27;;
3653;SDS011;70277;54.302;10.064;2023-08-17T07:28:17;3.67;;;1.27;;
3653;SDS011;70277;54.302;10.064;2023-08-17T07:30:44;4.53;;;1.20;;
3653;SDS011;70277;54.302;10.064;2023-08-17T07:33:10;4.43;;;1.25;;
3653;SDS011;70277;54.302;10.064;2023-08-17T07:35:37;5.95;;;1.45;;
3653;SDS011;70277;54.302;10.064;2023-08-17T07:38:03;4.00;;;1.20;;
3653;SDS011;70277;54.302;10.064;2023-08-17T07:40:34;4.68;;;1.50;;
3653;SDS011;70277;54.302;10.064;2023-08-17T07:43:01;2.05;;;1.10;;
3653;SDS011;70277;54.302;10.064;2023-08-17T07:45:28;3.95;;;1.23;;
3653;SDS011;70277;54.302;10.064;2023-08-17T07:47:55;6.65;;;1.25;;
3653;SDS011;70277;54.302;10.064;2023-08-17T07:50:21;4.00;;;1.45;;
3653;SDS011;70277;54.302;10.064;2023-08-17T07:52:48;9.63;;;1.85;;
3653;SDS011;70277;54.302;10.064;2023-08-17T07:55:14;6.28;;;1.38;;
3653;SDS011;70277;54.302;10.064;2023-08-17T07:57:41;3.78;;;1.38;;
3653;SDS011;70277;54.302;10.064;2023-08-17T08:00:07;11.07;;;1.60;;
3653;SDS011;70277;54.302;10.064;2023-08-17T08:02:34;5.80;;;1.40;;
3653;SDS011;70277;54.302;10.064;2023-08-17T08:05:02;6.90;;;1.50;;
3653;SDS011;70277;54.302;10.064;2023-08-17T08:07:28;4.00;;;1.45;;
3653;SDS011;70277;54.302;10.064;2023-08-17T08:09:55;5.85;;;1.58;;
3653;SDS011;70277;54.302;10.064;2023-08-17T08:12:21;2.80;;;1.75;;
3653;SDS011;70277;54.302;10.064;2023-08-17T08:14:48;3.00;;;1.42;;
3653;SDS011;70277;54.302;10.064;2023-08-17T08:17:15;4.30;;;1.10;;
3653;SDS011;70277;54.302;10.064;2023-08-17T08:19:41;5.47;;;1.20;;
3653;SDS011;70277;54.302;10.064;2023-08-17T08:22:08;5.50;;;1.30;;
3653;SDS011;70277;54.302;10.064;2023-08-17T08:24:34;1.17;;;1.08;;
3653;SDS011;70277;54.302;10.064;2023-08-17T08:27:04;5.32;;;1.20;;
3653;SDS011;70277;54.302;10.064;2023-08-17T08:29:31;4.78;;;1.38;;
3653;SDS011;70277;54.302;10.064;2023-08-17T08:31:57;6.18;;;1.40;;
3653;SDS011;70277;54.302;10.064;2023-08-17T08:34:26;2.85;;;1.58;;
3653;SDS011;70277;54.302;10.064;2023-08-17T08:36:52;3.47;;;1.20;;
3653;SDS011;70277;54.302;10.064;2023-08-17T08:39:18;2.25;;;1.10;;
3653;SDS011;70277;54.302;10.064;2023-08-17T08:41:45;4.90;;;1.50;;
3653;SDS011;70277;54.302;10.064;2023-08-17T08:44:11;3.28;;;1.35;;
3653;SDS011;70277;54.302;10.064;2023-08-17T08:46:39;6.82;;;1.15;;
3653;SDS011;70277;54.302;10.064;2023-08-17T08:49:10;4.38;;;1.15;;
3653;SDS011;70277;54.302;10.064;2023-08-17T08:51:42;6.28;;;1.42;;
3653;SDS011;70277;54.302;10.064;2023-08-17T08:54:12;1.70;;;0.98;;
3653;SDS011;70277;54.302;10.064;2023-08-17T08:56:42;3.92;;;1.10;;
3653;SDS011;70277;54.302;10.064;2023-08-17T08:59:13;2.63;;;1.20;;
3653;SDS011;70277;54.302;10.064;2023-08-17T09:01:40;3.42;;;1.40;;
3653;SDS011;70277;54.302;10.064;2023-08-17T09:04:08;6.85;;;1.30;;
3653;SDS011;70277;54.302;10.064;2023-08-17T09:06:34;2.53;;;1.00;;
3653;SDS011;70277;54.302;10.064;2023-08-17T09:09:02;6.82;;;1.15;;
3653;SDS011;70277;54.302;10.064;2023-08-17T09:11:28;5.90;;;1.35;;
3653;SDS011;70277;54.302;10.064;2023-08-17T09:13:56;2.88;;;1.33;;
3653;SDS011;70277;54.302;10.064;2023-08-17T09:16:22;4.97;;;1.10;;
3653;SDS011;70277;54.302;10.064;2023-08-17T09:18:52;4.13;;;1.20;;
3653;SDS011;70277;54.302;10.064;2023-08-17T09:21:19;3.72;;;1.10;;
3653;SDS011;70277;54.302;10.064;2023-08-17T09:23:55;5.70;;;1.20;;
3653;SDS011;70277;54.302;10.064;2023-08-17T09:26:29;4.47;;;1.30;;
3653;SDS011;70277;54.302;10.064;2023-08-17T09:28:57;2.85;;;1.33;;
3653;SDS011;70277;54.302;10.064;2023-08-17T09:31:25;3.30;;;1.30;;
3653;SDS011;70277;54.302;10.064;2023-08-17T09:33:52;3.88;;;1.63;;
3653;SDS011;70277;54.302;10.064;2023-08-17T09:36:22;3.03;;;1.20;;
3653;SDS011;70277;54.302;10.064;2023-08-17T09:38:50;3.08;;;1.38;;
3653;SDS011;70277;54.302;10.064;2023-08-17T09:41:18;4.00;;;1.52;;
3653;SDS011;70277;54.302;10.064;2023-08-17T09:43:45;6.28;;;1.40;;
3653;SDS011;70277;54.302;10.064;2023-08-17T09:46:12;2.40;;;1.40;;
3653;SDS011;70277;54.302;10.064;2023-08-17T09:48:39;5.10;;;1.52;;
3653;SDS011;70277;54.302;10.064;2023-08-17T09:51:06;6.63;;;1.80;;
3653;SDS011;70277;54.302;10.064;2023-08-17T09:53:35;5.72;;;1.65;;
3653;SDS011;70277;54.302;10.064;2023-08-17T09:56:03;9.50;;;1.80;;
3653;SDS011;70277;54.302;10.064;2023-08-17T09:58:31;3.67;;;1.70;;
3653;SDS011;70277;54.302;10.064;2023-08-17T10:00:57;3.35;;;1.70;;
3653;SDS011;70277;54.302;10.064;2023-08-17T10:03:28;8.95;;;2.10;;
3653;SDS011;70277;54.302;10.064;2023-08-17T10:06:04;4.95;;;1.60;;
3653;SDS011;70277;54.302;10.064;2023-08-17T10:08:33;3.70;;;1.85;;
3653;SDS011;70277;54.302;10.064;2023-08-17T10:11:06;6.15;;;1.95;;
3653;SDS011;70277;54.302;10.064;2023-08-17T10:13:35;11.70;;;2.28;;
3653;SDS011;70277;54.302;10.064;2023-08-17T10:16:11;5.45;;;1.67;;
3653;SDS011;70277;54.302;10.064;2023-08-17T10:21:28;7.63;;;2.10;;
3653;SDS011;70277;54.302;10.064;2023-08-17T10:23:58;6.38;;;2.13;;
3653;SDS011;70277;54.302;10.064;2023-08-17T10:26:24;5.72;;;2.35;;
3653;SDS011;70277;54.302;10.064;2023-08-17T10:28:52;11.43;;;2.45;;
3653;SDS011;70277;54.302;10.064;2023-08-17T10:31:20;5.55;;;2.10;;
3653;SDS011;70277;54.302;10.064;2023-08-17T10:33:47;4.75;;;2.28;;
3653;SDS011;70277;54.302;10.064;2023-08-17T10:36:14;4.00;;;2.17;;
3653;SDS011;70277;54.302;10.064;2023-08-17T10:38:41;5.20;;;2.00;;
3653;SDS011;70277;54.302;10.064;2023-08-17T10:44:33;8.98;;;2.47;;
3653;SDS011;70277;54.302;10.064;2023-08-17T10:46:36;4.80;;;1.90;;
3653;SDS011;70277;54.302;10.064;2023-08-17T10:49:04;11.32;;;2.50;;
3653;SDS011;70277;54.302;10.064;2023-08-17T10:51:32;11.10;;;2.47;;
3653;SDS011;70277;54.302;10.064;2023-08-17T10:54:03;5.35;;;2.30;;
3653;SDS011;70277;54.302;10.064;2023-08-17T10:56:30;5.38;;;2.28;;
3653;SDS011;70277;54.302;10.064;2023-08-17T10:59:00;6.75;;;2.17;;
3653;SDS011;70277;54.302;10.064;2023-08-17T11:01:31;5.10;;;2.10;;
3653;SDS011;70277;54.302;10.064;2023-08-17T11:04:08;6.07;;;2.50;;
3653;SDS011;70277;54.302;10.064;2023-08-17T11:06:44;8.23;;;2.40;;
3653;SDS011;70277;54.302;10.064;2023-08-17T11:09:11;7.63;;;2.22;;
3653;SDS011;70277;54.302;10.064;2023-08-17T11:11:38;4.53;;;2.40;;
3653;SDS011;70277;54.302;10.064;2023-08-17T11:14:05;6.15;;;2.33;;
3653;SDS011;70277;54.302;10.064;2023-08-17T11:16:31;7.65;;;2.13;;
3653;SDS011;70277;54.302;10.064;2023-08-17T11:18:59;5.72;;;2.05;;
3653;SDS011;70277;54.302;10.064;2023-08-17T11:21:26;6.70;;;2.28;;
3653;SDS011;70277;54.302;10.064;2023-08-17T11:23:54;5.68;;;2.30;;
3653;SDS011;70277;54.302;10.064;2023-08-17T11:26:22;7.53;;;2.40;;
3653;SDS011;70277;54.302;10.064;2023-08-17T11:28:48;9.55;;;2.47;;
3653;SDS011;70277;54.302;10.064;2023-08-17T11:31:16;7.72;;;2.25;;
3653;SDS011;70277;54.302;10.064;2023-08-17T11:33:42;10.57;;;2.50;;
3653;SDS011;70277;54.302;10.064;2023-08-17T11:36:09;8.02;;;2.75;;
3653;SDS011;70277;54.302;10.064;2023-08-17T11:38:37;4.80;;;2.05;;
3653;SDS011;70277;54.302;10.064;2023-08-17T11:41:08;9.15;;;1.92;;
3653;SDS011;70277;54.302;10.064;2023-08-17T11:43:36;4.95;;;2.25;;
3653;SDS011;70277;54.302;10.064;2023-08-17T11:46:03;11.43;;;2.10;;
3653;SDS011;70277;54.302;10.064;2023-08-17T11:48:31;7.07;;;2.20;;
3653;SDS011;70277;54.302;10.064;2023-08-17T11:51:00;6.70;;;1.92;;
3653;SDS011;70277;54.302;10.064;2023-08-17T11:53:32;8.98;;;2.20;;
3653;SDS011;70277;54.302;10.064;2023-08-17T11:56:00;7.93;;;1.98;;
3653;SDS011;70277;54.302;10.064;2023-08-17T11:58:43;7.80;;;1.83;;
3653;SDS011;70277;54.302;10.064;2023-08-17T12:01:12;3.60;;;1.90;;
3653;SDS011;70277;54.302;10.064;2023-08-17T12:03:39;8.85;;;1.80;;
3653;SDS011;70277;54.302;10.064;2023-08-17T12:06:08;8.40;;;2.20;;
3653;SDS011;70277;54.302;10.064;2023-08-17T12:08:35;6.25;;;1.90;;
3653;SDS011;70277;54.302;10.064;2023-08-17T12:11:02;12.02;;;1.92;;
3653;SDS011;70277;54.302;10.064;2023-08-17T12:13:33;6.97;;;2.33;;
3653;SDS011;70277;54.302;10.064;2023-08-17T12:16:00;6.18;;;2.25;;
3653;SDS011;70277;54.302;10.064;2023-08-17T12:18:27;5.20;;;2.08;;
3653;SDS011;70277;54.302;10.064;2023-08-17T12:20:54;7.07;;;2.28;;
3653;SDS011;70277;54.302;10.064;2023-08-17T12:23:21;4.63;;;2.28;;
3653;SDS011;70277;54.302;10.064;2023-08-17T12:25:52;7.22;;;2.00;;
3653;SDS011;70277;54.302;10.064;2023-08-17T12:28:20;8.05;;;2.10;;
3653;SDS011;70277;54.302;10.064;2023-08-17T12:30:46;4.30;;;2.03;;
3653;SDS011;70277;54.302;10.064;2023-08-17T12:33:13;4.65;;;2.00;;
3653;SDS011;70277;54.302;10.064;2023-08-17T12:35:39;9.30;;;2.50;;
3653;SDS011;70277;54.302;10.064;2023-08-17T12:38:06;9.95;;;2.15;;
3653;SDS011;70277;54.302;10.064;2023-08-17T12:40:32;4.63;;;2.47;;
3653;SDS011;70277;54.302;10.064;2023-08-17T12:42:59;4.85;;;2.00;;
3653;SDS011;70277;54.302;10.064;2023-08-17T12:45:25;5.22;;;2.15;;
3653;SDS011;70277;54.302;10.064;2023-08-17T12:47:53;6.18;;;2.30;;
3653;SDS011;70277;54.302;10.064;2023-08-17T12:50:20;6.45;;;2.03;;
3653;SDS011;70277;54.302;10.064;2023-08-17T12:52:47;5.28;;;1.77;;
3653;SDS011;70277;54.302;10.064;2023-08-17T12:55:13;7.85;;;2.03;;
3653;SDS011;70277;54.302;10.064;2023-08-17T12:57:40;8.63;;;2.35;;
3653;SDS011;70277;54.302;10.064;2023-08-17T13:00:06;4.65;;;1.92;;
3653;SDS011;70277;54.302;10.064;2023-08-17T13:02:33;3.95;;;2.05;;
3653;SDS011;70277;54.302;10.064;2023-08-17T13:05:00;7.68;;;2.45;;
3653;SDS011;70277;54.302;10.064;2023-08-17T13:07:26;5.25;;;1.80;;
3653;SDS011;70277;54.302;10.064;2023-08-17T13:09:53;4.60;;;1.90;;
3653;SDS011;70277;54.302;10.064;2023-08-17T13:12:19;5.95;;;1.73;;
3653;SDS011;70277;54.302;10.064;2023-08-17T13:14:46;3.95;;;1.70;;
3653;SDS011;70277;54.302;10.064;2023-08-17T13:17:12;2.55;;;1.70;;
3653;SDS011;70277;54.302;10.064;2023-08-17T13:19:40;6.53;;;1.90;;
3653;SDS011;70277;54.302;10.064;2023-08-17T13:22:07;7.13;;;2.10;;
3653;SDS011;70277;54.302;10.064;2023-08-17T13:24:35;4.30;;;1.77;;
3653;SDS011;70277;54.302;10.064;2023-08-17T13:27:01;5.68;;;2.00;;
3653;SDS011;70277;54.302;10.064;2023-08-17T13:29:28;6.88;;;2.10;;
3653;SDS011;70277;54.302;10.064;2023-08-17T13:31:54;5.43;;;1.95;;
3653;SDS011;70277;54.302;10.064;2023-08-17T13:34:21;6.18;;;2.10;;
3653;SDS011;70277;54.302;10.064;2023-08-17T13:36:47;9.15;;;2.28;;
3653;SDS011;70277;54.302;10.064;2023-08-17T13:39:14;10.48;;;2.75;;
3653;SDS011;70277;54.302;10.064;2023-08-17T13:41:41;8.77;;;2.25;;
3653;SDS011;70277;54.302;10.064;2023-08-17T13:44:08;7.88;;;2.47;;
3653;SDS011;70277;54.302;10.064;2023-08-17T13:46:35;10.05;;;2.50;;
3653;SDS011;70277;54.302;10.064;2023-08-17T13:49:03;13.35;;;2.90;;
3653;SDS011;70277;54.302;10.064;2023-08-17T13:51:30;10.45;;;2.65;;
3653;SDS011;70277;54.302;10.064;2023-08-17T13:53:56;9.18;;;2.50;;
3653;SDS011;70277;54.302;10.064;2023-08-17T13:56:23;6.78;;;2.42;;
3653;SDS011;70277;54.302;10.064;2023-08-17T13:58:51;6.72;;;2.40;;
3653;SDS011;70277;54.302;10.064;2023-08-17T14:01:17;10.20;;;2.38;;
3653;SDS011;70277;54.302;10.064;2023-08-17T14:03:44;7.55;;;2.25;;
3653;SDS011;70277;54.302;10.064;2023-08-17T14:06:11;7.75;;;2.80;;
3653;SDS011;70277;54.302;10.064;2023-08-17T14:08:38;5.07;;;2.47;;
3653;SDS011;70277;54.302;10.064;2023-08-17T14:11:04;5.50;;;2.63;;
3653;SDS011;70277;54.302;10.064;2023-08-17T14:13:32;8.00;;;2.78;;
3653;SDS011;70277;54.302;10.064;2023-08-17T14:16:00;4.47;;;2.67;;
3653;SDS011;70277;54.302;10.064;2023-08-17T14:18:26;6.85;;;2.83;;
3653;SDS011;70277;54.302;10.064;2023-08-17T14:20:53;10.63;;;3.05;;
3653;SDS011;70277;54.302;10.064;2023-08-17T14:23:19;7.63;;;2.50;;
3653;SDS011;70277;54.302;10.064;2023-08-17T14:25:46;5.13;;;2.65;;
3653;SDS011;70277;54.302;10.064;2023-08-17T14:28:12;8.05;;;3.00;;
3653;SDS011;70277;54.302;10.064;2023-08-17T14:30:39;10.20;;;2.75;;
3653;SDS011;70277;54.302;10.064;2023-08-17T14:33:06;8.77;;;3.10;;
3653;SDS011;70277;54.302;10.064;2023-08-17T14:35:32;13.27;;;3.22;;
3653;SDS011;70277;54.302;10.064;2023-08-17T14:37:59;13.20;;;3.17;;
3653;SDS011;70277;54.302;10.064;2023-08-17T14:40:27;6.22;;;2.83;;
3653;SDS011;70277;54.302;10.064;2023-08-17T14:42:53;11.60;;;3.40;;
3653;SDS011;70277;54.302;10.064;2023-08-17T14:45:20;8.75;;;2.90;;
3653;SDS011;70277;54.302;10.064;2023-08-17T14:47:46;7.75;;;2.88;;
3653;SDS011;70277;54.302;10.064;2023-08-17T14:50:13;9.05;;;2.80;;
3653;SDS011;70277;54.302;10.064;2023-08-17T14:52:40;6.43;;;2.70;;
3653;SDS011;70277;54.302;10.064;2023-08-17T14:55:07;8.45;;;2.88;;